Time;durP1;ratioP1;P1;durP2;ratioP2;P2;SDS_P1;SDS_P2;PMS_P1;PMS_P2;Temp;Humidity;BMP_temperature;BMP_pressure;BME280_temperature;BME280_humidity;BME280_pressure;Samples;Min_cycle;Max_cycle;Signal;HPM_P1;HPM_P2
2021/12/15 00:00:07;;;;;;;16.40;12.45;;;;;;;;;;5052964;28;20219;-76
2021/12/15 00:02:34;;;;;;;16.25;10.50;;;;;;;;;;5051650;28;20196;-76
2021/12/15 00:05:01;;;;;;;18.60;12.98;;;;;;;;;;5065794;28;20210;-75
2021/12/15 00:07:29;;;;;;;14.93;11.43;;;;;;;;;;5051382;28;20561;-75
2021/12/15 00:09:56;;;;;;;13.82;9.68;;;;;;;;;;5060789;28;20214;-76
2021/12/15 00:12:23;;;;;;;17.55;11.95;;;;;;;;;;5053757;28;20630;-77
2021/12/15 00:14:50;;;;;;;17.27;10.65;;;;;;;;;;5068052;28;20294;-77
2021/12/15 00:17:19;;;;;;;17.13;12.15;;;;;;;;;;5051233;28;20674;-76
2021/12/15 00:19:46;;;;;;;13.90;10.90;;;;;;;;;;5062829;28;20194;-77
2021/12/15 00:22:14;;;;;;;13.23;9.63;;;;;;;;;;5052548;28;20191;-77
2021/12/15 00:24:41;;;;;;;13.82;10.95;;;;;;;;;;5059063;28;20285;-76
2021/12/15 00:27:08;;;;;;;14.55;11.05;;;;;;;;;;5059432;28;20669;-75
2021/12/15 00:29:36;;;;;;;18.10;11.82;;;;;;;;;;5060525;28;20194;-77
2021/12/15 00:32:04;;;;;;;15.75;11.48;;;;;;;;;;5058493;28;20234;-76
2021/12/15 00:34:34;;;;;;;13.10;11.10;;;;;;;;;;5049027;28;20202;-77
2021/12/15 00:37:01;;;;;;;18.95;11.50;;;;;;;;;;5051842;28;20211;-78
2021/12/15 00:39:29;;;;;;;13.70;11.50;;;;;;;;;;5056620;28;20198;-77
2021/12/15 00:41:57;;;;;;;15.10;10.70;;;;;;;;;;5051219;28;20194;-76
2021/12/15 00:44:25;;;;;;;19.65;12.57;;;;;;;;;;5058886;28;20681;-76
2021/12/15 00:46:52;;;;;;;16.10;11.00;;;;;;;;;;5051006;28;20201;-76
2021/12/15 00:49:20;;;;;;;15.40;11.18;;;;;;;;;;5061047;28;20234;-77
2021/12/15 00:51:48;;;;;;;16.58;11.73;;;;;;;;;;5053565;28;20218;-78
2021/12/15 00:54:16;;;;;;;17.63;11.95;;;;;;;;;;5047801;28;20195;-77
2021/12/15 00:56:43;;;;;;;16.15;12.73;;;;;;;;;;5049772;28;20194;-77
2021/12/15 00:59:11;;;;;;;14.13;11.02;;;;;;;;;;5056335;28;20217;-77
2021/12/15 01:01:39;;;;;;;14.40;11.23;;;;;;;;;;5051988;28;20201;-78
2021/12/15 01:04:06;;;;;;;13.65;10.15;;;;;;;;;;5051500;28;20206;-76
2021/12/15 01:06:33;;;;;;;14.20;10.63;;;;;;;;;;5054368;28;20195;-75
2021/12/15 01:09:04;;;;;;;13.68;10.45;;;;;;;;;;5043673;28;20199;-77
2021/12/15 01:11:46;;;;;;;15.07;10.70;;;;;;;;;;5050759;28;20211;-77
2021/12/15 01:19:46;;;;;;;11.80;9.23;;;;;;;;;;5057261;28;20642;-77
2021/12/15 01:20:08;;;;;;;13.68;9.57;;;;;;;;;;5053673;28;20320;-76
2021/12/15 01:22:37;;;;;;;14.40;10.25;;;;;;;;;;5058895;28;20230;-77
2021/12/15 01:25:09;;;;;;;15.55;11.60;;;;;;;;;;5052206;28;20662;-76
2021/12/15 01:27:36;;;;;;;13.48;9.40;;;;;;;;;;5052321;28;20191;-76
2021/12/15 01:30:04;;;;;;;16.05;11.40;;;;;;;;;;5051607;28;20199;-76
2021/12/15 01:32:31;;;;;;;15.10;11.57;;;;;;;;;;5048805;28;20202;-77
2021/12/15 01:34:58;;;;;;;16.85;9.85;;;;;;;;;;5058109;28;20202;-76
2021/12/15 01:37:26;;;;;;;14.48;10.95;;;;;;;;;;5056438;28;20202;-77
2021/12/15 01:39:55;;;;;;;13.63;11.10;;;;;;;;;;5049641;28;20190;-76
2021/12/15 01:42:25;;;;;;;26.52;12.57;;;;;;;;;;5048412;28;20628;-78
2021/12/15 01:47:37;;;;;;;13.43;9.65;;;;;;;;;;5059589;28;20267;-76
2021/12/15 01:50:05;;;;;;;13.93;9.43;;;;;;;;;;5058772;28;20565;-77
2021/12/15 01:52:35;;;;;;;14.02;9.95;;;;;;;;;;5059824;28;20292;-77
2021/12/15 01:55:06;;;;;;;17.75;12.48;;;;;;;;;;5044090;28;20210;-77
2021/12/15 01:57:35;;;;;;;14.63;10.50;;;;;;;;;;5050957;28;20194;-78
2021/12/15 02:00:08;;;;;;;14.90;9.80;;;;;;;;;;5056020;28;20227;-77
2021/12/15 02:02:35;;;;;;;10.75;9.25;;;;;;;;;;5055360;28;20191;-77
2021/12/15 02:05:02;;;;;;;12.88;10.30;;;;;;;;;;5057917;28;20202;-77
2021/12/15 02:07:29;;;;;;;13.15;10.30;;;;;;;;;;5059039;28;20207;-76
2021/12/15 02:10:04;;;;;;;10.48;7.93;;;;;;;;;;5046494;28;20195;-77
2021/12/15 02:12:35;;;;;;;18.90;11.13;;;;;;;;;;5055236;28;20217;-77
2021/12/15 02:15:05;;;;;;;13.88;9.90;;;;;;;;;;5056239;28;20509;-76
2021/12/15 02:17:32;;;;;;;12.57;9.25;;;;;;;;;;5050522;28;20202;-76
2021/12/15 02:19:59;;;;;;;11.88;10.20;;;;;;;;;;5055392;28;20198;-76
2021/12/15 02:22:30;;;;;;;12.90;8.70;;;;;;;;;;5061900;28;20190;-76
2021/12/15 02:24:57;;;;;;;11.60;8.82;;;;;;;;;;5038934;28;20218;-76
2021/12/15 02:27:30;;;;;;;10.80;8.38;;;;;;;;;;5052493;28;20638;-76
2021/12/15 02:30:05;;;;;;;13.05;9.63;;;;;;;;;;5061142;28;20620;-76
2021/12/15 02:32:44;;;;;;;11.10;9.85;;;;;;;;;;5039412;28;20226;-76
2021/12/15 02:37:57;;;;;;;12.77;9.30;;;;;;;;;;5048218;28;20194;-76
2021/12/15 02:40:24;;;;;;;12.27;9.77;;;;;;;;;;5051506;28;20194;-76
2021/12/15 02:42:52;;;;;;;14.90;10.30;;;;;;;;;;5057696;28;20645;-76
2021/12/15 02:45:20;;;;;;;12.02;9.15;;;;;;;;;;5059028;28;20202;-76
2021/12/15 02:47:48;;;;;;;10.00;8.20;;;;;;;;;;5048653;28;20677;-77
2021/12/15 02:50:23;;;;;;;10.70;9.20;;;;;;;;;;5044160;28;20601;-76
2021/12/15 02:52:51;;;;;;;12.18;8.75;;;;;;;;;;5049205;28;20201;-76
2021/12/15 02:55:20;;;;;;;11.93;10.07;;;;;;;;;;5056552;28;20198;-77
2021/12/15 02:57:47;;;;;;;11.93;8.00;;;;;;;;;;5062026;28;20206;-77
2021/12/15 03:00:22;;;;;;;10.63;7.40;;;;;;;;;;5051139;28;20220;-76
2021/12/15 03:05:48;;;;;;;10.93;8.30;;;;;;;;;;5047623;28;20194;-73
2021/12/15 03:08:19;;;;;;;12.13;8.75;;;;;;;;;;5047754;28;20192;-73
2021/12/15 03:16:21;;;;;;;10.25;8.10;;;;;;;;;;5037651;28;20206;-76
2021/12/15 03:18:48;;;;;;;13.50;9.02;;;;;;;;;;5049056;28;20677;-76
2021/12/15 03:21:16;;;;;;;14.35;9.57;;;;;;;;;;5052397;28;20209;-73
2021/12/15 03:23:49;;;;;;;10.55;8.65;;;;;;;;;;5047101;28;20194;-73
2021/12/15 03:26:21;;;;;;;12.38;8.82;;;;;;;;;;5051686;28;20194;-73
2021/12/15 03:34:38;;;;;;;12.32;8.52;;;;;;;;;;5050527;28;20205;-74
2021/12/15 03:37:09;;;;;;;10.13;7.70;;;;;;;;;;5061038;28;20220;-73
2021/12/15 03:39:42;;;;;;;13.60;9.45;;;;;;;;;;5050549;28;20202;-77
2021/12/15 03:42:12;;;;;;;10.27;7.93;;;;;;;;;;5052235;28;20202;-77
2021/12/15 03:44:40;;;;;;;12.57;8.43;;;;;;;;;;5047104;28;20197;-77
2021/12/15 03:47:09;;;;;;;10.35;7.47;;;;;;;;;;5046387;28;20203;-76
2021/12/15 03:49:36;;;;;;;13.68;9.57;;;;;;;;;;5052159;28;20566;-77
2021/12/15 03:52:03;;;;;;;11.73;8.88;;;;;;;;;;5062019;28;20690;-76
2021/12/15 03:54:31;;;;;;;8.43;7.47;;;;;;;;;;5053212;28;20206;-76
2021/12/15 03:56:58;;;;;;;14.43;9.27;;;;;;;;;;5053264;28;20205;-76
2021/12/15 03:59:28;;;;;;;12.05;8.77;;;;;;;;;;5052748;28;20210;-77
2021/12/15 04:01:55;;;;;;;12.07;8.40;;;;;;;;;;5063857;28;20653;-78
2021/12/15 04:04:22;;;;;;;11.65;8.60;;;;;;;;;;5057025;28;20195;-76
2021/12/15 04:06:50;;;;;;;11.90;8.63;;;;;;;;;;5062266;28;20233;-76
2021/12/15 04:09:18;;;;;;;10.50;9.35;;;;;;;;;;5049123;28;20201;-75
2021/12/15 04:11:45;;;;;;;12.02;8.65;;;;;;;;;;5050899;28;20708;-75
2021/12/15 04:14:19;;;;;;;14.13;9.40;;;;;;;;;;5056253;28;20198;-77
2021/12/15 04:16:59;;;;;;;11.48;8.93;;;;;;;;;;5048882;28;20202;-77
2021/12/15 04:19:26;;;;;;;9.60;7.60;;;;;;;;;;5051156;28;20241;-77
2021/12/15 04:21:53;;;;;;;8.82;7.35;;;;;;;;;;5059287;28;20225;-76
2021/12/15 04:24:23;;;;;;;12.00;7.85;;;;;;;;;;5057236;28;20207;-77
2021/12/15 04:26:50;;;;;;;11.40;8.30;;;;;;;;;;5052678;28;20210;-77
2021/12/15 04:29:18;;;;;;;10.45;8.70;;;;;;;;;;5052676;28;20203;-77
2021/12/15 04:31:46;;;;;;;10.57;8.35;;;;;;;;;;5051681;28;20586;-77
2021/12/15 04:34:15;;;;;;;10.95;8.80;;;;;;;;;;5057390;28;20198;-77
2021/12/15 04:36:43;;;;;;;11.85;8.77;;;;;;;;;;5061835;28;20205;-76
2021/12/15 04:39:12;;;;;;;11.43;9.07;;;;;;;;;;5061583;28;20205;-76
2021/12/15 04:41:44;;;;;;;14.02;8.98;;;;;;;;;;5063349;28;20190;-77
2021/12/15 04:44:12;;;;;;;10.73;9.13;;;;;;;;;;5058895;28;20679;-76
2021/12/15 04:46:41;;;;;;;10.65;8.52;;;;;;;;;;5046089;28;20566;-76
2021/12/15 04:49:09;;;;;;;12.60;9.32;;;;;;;;;;5054247;28;20655;-76
2021/12/15 04:51:38;;;;;;;12.27;7.85;;;;;;;;;;5056674;28;20225;-77
2021/12/15 04:54:06;;;;;;;14.85;8.50;;;;;;;;;;5049327;28;20195;-75
2021/12/15 04:56:33;;;;;;;15.25;9.48;;;;;;;;;;5051579;28;20199;-76
2021/12/15 04:59:01;;;;;;;10.82;8.10;;;;;;;;;;5056861;28;20688;-76
2021/12/15 05:01:29;;;;;;;12.52;10.25;;;;;;;;;;5053985;28;20217;-75
2021/12/15 05:03:56;;;;;;;13.18;9.68;;;;;;;;;;5051177;28;20663;-76
2021/12/15 05:06:23;;;;;;;12.05;10.05;;;;;;;;;;5058764;28;20209;-76
2021/12/15 05:08:52;;;;;;;13.32;9.10;;;;;;;;;;5045542;28;20585;-76
2021/12/15 05:11:19;;;;;;;11.00;8.45;;;;;;;;;;5051864;28;20199;-77
2021/12/15 05:13:46;;;;;;;10.90;9.60;;;;;;;;;;5063796;28;20202;-75
2021/12/15 05:16:15;;;;;;;13.82;10.82;;;;;;;;;;5051886;28;20205;-75
2021/12/15 05:18:43;;;;;;;12.77;10.30;;;;;;;;;;5043686;28;20662;-76
2021/12/15 05:21:11;;;;;;;16.63;10.95;;;;;;;;;;5051708;28;20205;-76
2021/12/15 05:23:38;;;;;;;14.25;10.02;;;;;;;;;;5055948;28;20596;-76
2021/12/15 05:26:07;;;;;;;12.55;9.30;;;;;;;;;;5051525;28;20371;-76
2021/12/15 05:28:35;;;;;;;11.55;8.90;;;;;;;;;;5051512;28;20202;-76
2021/12/15 05:31:02;;;;;;;13.73;9.25;;;;;;;;;;5050772;28;20214;-76
2021/12/15 05:33:29;;;;;;;9.73;8.40;;;;;;;;;;5056913;28;20237;-76
2021/12/15 05:35:56;;;;;;;10.60;9.00;;;;;;;;;;5052088;28;20217;-76
2021/12/15 05:38:24;;;;;;;11.18;9.20;;;;;;;;;;5053452;28;20309;-76
2021/12/15 05:40:51;;;;;;;14.40;8.98;;;;;;;;;;5050510;28;20187;-76
2021/12/15 05:43:19;;;;;;;14.00;11.10;;;;;;;;;;5052307;28;20570;-77
2021/12/15 05:45:48;;;;;;;13.40;9.35;;;;;;;;;;5059719;28;20568;-76
2021/12/15 05:48:15;;;;;;;9.40;7.85;;;;;;;;;;5053804;28;20241;-76
2021/12/15 05:50:43;;;;;;;11.40;8.98;;;;;;;;;;5051069;28;20197;-76
2021/12/15 05:53:10;;;;;;;15.60;10.65;;;;;;;;;;5056858;28;20582;-77
2021/12/15 05:55:37;;;;;;;11.55;9.20;;;;;;;;;;5053477;28;20210;-76
2021/12/15 05:58:05;;;;;;;11.68;9.55;;;;;;;;;;5059755;28;20209;-76
2021/12/15 06:00:35;;;;;;;11.73;9.20;;;;;;;;;;5057737;28;20213;-76
2021/12/15 06:03:03;;;;;;;14.27;9.15;;;;;;;;;;5048691;28;20662;-76
2021/12/15 06:05:30;;;;;;;12.07;9.70;;;;;;;;;;5049316;28;20195;-77
2021/12/15 06:07:57;;;;;;;11.93;9.25;;;;;;;;;;5053098;28;20209;-77
2021/12/15 06:10:25;;;;;;;9.57;8.57;;;;;;;;;;5050556;28;20281;-77
2021/12/15 06:12:53;;;;;;;12.43;9.73;;;;;;;;;;5050273;28;20590;-77
2021/12/15 06:15:23;;;;;;;12.85;9.50;;;;;;;;;;5050292;28;20198;-76
2021/12/15 06:17:52;;;;;;;11.00;8.95;;;;;;;;;;5056320;28;20195;-76
2021/12/15 06:20:19;;;;;;;11.38;8.90;;;;;;;;;;5033971;28;20206;-76
2021/12/15 06:22:47;;;;;;;9.50;8.13;;;;;;;;;;5057114;28;20205;-76
2021/12/15 06:25:14;;;;;;;10.70;8.70;;;;;;;;;;5051149;28;20616;-77
2021/12/15 06:27:41;;;;;;;12.57;9.80;;;;;;;;;;5053822;28;20690;-77
2021/12/15 06:30:09;;;;;;;15.50;9.30;;;;;;;;;;5051304;28;20222;-77
2021/12/15 06:32:36;;;;;;;10.75;8.55;;;;;;;;;;5043870;28;20594;-77
2021/12/15 06:35:06;;;;;;;14.15;8.85;;;;;;;;;;5040921;28;20195;-77
2021/12/15 06:37:33;;;;;;;11.18;8.80;;;;;;;;;;5055554;28;20206;-76
2021/12/15 06:40:00;;;;;;;9.27;7.70;;;;;;;;;;5054552;28;20658;-76
2021/12/15 06:42:29;;;;;;;14.27;8.55;;;;;;;;;;5047363;28;20647;-77
2021/12/15 06:44:57;;;;;;;10.50;8.20;;;;;;;;;;5056665;28;20203;-77
2021/12/15 06:57:16;;;;;;;9.77;8.30;;;;;;;;;;5051677;28;20199;-77
2021/12/15 06:58:50;;;;;;;8.35;7.15;;;;;;;;;;5049150;28;20286;-77
2021/12/15 07:01:18;;;;;;;9.05;6.57;;;;;;;;;;5048500;28;20546;-77
2021/12/15 07:03:45;;;;;;;9.35;8.35;;;;;;;;;;5050901;28;20201;-77
2021/12/15 07:06:13;;;;;;;10.50;8.95;;;;;;;;;;5053502;28;20199;-77
2021/12/15 07:08:40;;;;;;;9.27;7.50;;;;;;;;;;5041279;28;20195;-78
2021/12/15 07:11:07;;;;;;;10.57;7.28;;;;;;;;;;5050225;28;20202;-77
2021/12/15 07:13:35;;;;;;;9.98;7.97;;;;;;;;;;5049116;28;20689;-77
2021/12/15 07:16:05;;;;;;;8.02;7.15;;;;;;;;;;5049672;28;20206;-77
2021/12/15 07:18:41;;;;;;;7.95;7.00;;;;;;;;;;5049489;28;20285;-78
2021/12/15 07:21:11;;;;;;;10.32;8.27;;;;;;;;;;5048455;28;20199;-77
2021/12/15 07:23:40;;;;;;;10.15;8.25;;;;;;;;;;5050750;28;20570;-78
2021/12/15 07:26:07;;;;;;;7.35;6.63;;;;;;;;;;5050304;28;20665;-78
2021/12/15 07:28:34;;;;;;;9.40;7.47;;;;;;;;;;5051521;28;20206;-78
2021/12/15 07:31:02;;;;;;;9.30;7.40;;;;;;;;;;5055089;28;20203;-78
2021/12/15 07:33:29;;;;;;;8.38;6.60;;;;;;;;;;5048497;28;20221;-78
2021/12/15 07:35:56;;;;;;;9.07;7.35;;;;;;;;;;5051353;28;20195;-78
2021/12/15 07:38:24;;;;;;;7.38;6.65;;;;;;;;;;5049246;28;20203;-78
2021/12/15 07:40:52;;;;;;;9.43;7.70;;;;;;;;;;5064787;28;20203;-78
2021/12/15 07:43:24;;;;;;;8.30;7.38;;;;;;;;;;5053388;28;20195;-78
2021/12/15 07:45:53;;;;;;;9.35;7.15;;;;;;;;;;5058757;28;20620;-78
2021/12/15 07:48:21;;;;;;;9.55;8.55;;;;;;;;;;5047187;28;20201;-80
2021/12/15 07:50:50;;;;;;;11.15;7.75;;;;;;;;;;5059411;28;20312;-80
2021/12/15 07:53:18;;;;;;;6.80;6.10;;;;;;;;;;5062150;28;20297;-79
2021/12/15 07:55:45;;;;;;;8.50;7.22;;;;;;;;;;5053495;28;20211;-79
2021/12/15 07:58:14;;;;;;;10.02;7.30;;;;;;;;;;5054952;28;20209;-79
2021/12/15 08:00:42;;;;;;;7.32;6.00;;;;;;;;;;5049140;28;20230;-78
2021/12/15 08:03:10;;;;;;;7.88;6.60;;;;;;;;;;5056726;28;20218;-78
2021/12/15 08:05:37;;;;;;;8.65;6.85;;;;;;;;;;5051013;28;20682;-77
2021/12/15 08:08:05;;;;;;;8.00;6.95;;;;;;;;;;5050530;28;20858;-76
2021/12/15 08:10:33;;;;;;;8.02;7.20;;;;;;;;;;5051687;28;20912;-74
2021/12/15 08:13:00;;;;;;;9.95;8.95;;;;;;;;;;5052675;28;20302;-77
2021/12/15 08:15:28;;;;;;;10.05;6.60;;;;;;;;;;5051414;28;20198;-77
2021/12/15 08:17:55;;;;;;;6.93;6.05;;;;;;;;;;5061961;28;20214;-79
2021/12/15 08:20:24;;;;;;;7.85;7.05;;;;;;;;;;5062065;28;20202;-78
2021/12/15 08:22:51;;;;;;;9.00;7.13;;;;;;;;;;5057486;28;20192;-79
2021/12/15 08:25:19;;;;;;;8.30;7.07;;;;;;;;;;5051950;28;20221;-81
2021/12/15 08:27:47;;;;;;;9.75;7.35;;;;;;;;;;5060054;28;20657;-83
2021/12/15 08:30:20;;;;;;;8.15;6.45;;;;;;;;;;5047031;28;20221;-77
2021/12/15 08:32:49;;;;;;;8.80;7.90;;;;;;;;;;5041435;28;20219;-76
2021/12/15 08:35:17;;;;;;;8.60;7.00;;;;;;;;;;5037428;28;20195;-80
2021/12/15 08:37:44;;;;;;;7.20;6.50;;;;;;;;;;5047568;28;20199;-79
2021/12/15 08:40:12;;;;;;;11.13;7.20;;;;;;;;;;5052918;28;20203;-79
2021/12/15 08:42:39;;;;;;;8.40;6.65;;;;;;;;;;5051126;28;20272;-78
2021/12/15 08:45:07;;;;;;;8.25;7.45;;;;;;;;;;5052881;28;20198;-79
2021/12/15 08:47:36;;;;;;;8.93;7.00;;;;;;;;;;5051164;28;20199;-78
2021/12/15 08:50:06;;;;;;;11.75;7.20;;;;;;;;;;5049101;28;20206;-79
2021/12/15 08:52:33;;;;;;;8.65;6.60;;;;;;;;;;5049949;28;22150;-79
2021/12/15 08:55:00;;;;;;;6.45;5.75;;;;;;;;;;5050381;28;20202;-79
2021/12/15 08:57:29;;;;;;;8.35;6.43;;;;;;;;;;5044563;28;20218;-79
2021/12/15 08:59:56;;;;;;;7.90;7.10;;;;;;;;;;5041121;28;20219;-77
2021/12/15 09:02:23;;;;;;;9.40;6.70;;;;;;;;;;5044523;28;20202;-78
2021/12/15 09:04:50;;;;;;;8.50;6.63;;;;;;;;;;5047999;28;20279;-79
2021/12/15 09:07:19;;;;;;;7.43;6.55;;;;;;;;;;5050903;28;20657;-80
2021/12/15 09:09:46;;;;;;;7.68;6.75;;;;;;;;;;5053054;28;20285;-77
2021/12/15 09:12:14;;;;;;;7.53;6.63;;;;;;;;;;5055041;28;20207;-80
2021/12/15 09:14:41;;;;;;;10.95;7.50;;;;;;;;;;5060117;28;20304;-81
2021/12/15 09:17:08;;;;;;;8.07;7.28;;;;;;;;;;5041622;28;20666;-80
2021/12/15 09:19:35;;;;;;;8.20;7.18;;;;;;;;;;5064478;28;20665;-80
2021/12/15 09:22:02;;;;;;;9.27;6.55;;;;;;;;;;5062995;28;20565;-80
2021/12/15 09:24:31;;;;;;;7.15;6.28;;;;;;;;;;5045512;28;20202;-80
2021/12/15 09:26:58;;;;;;;9.35;5.97;;;;;;;;;;5059561;28;20206;-81
2021/12/15 09:29:26;;;;;;;7.82;7.00;;;;;;;;;;5044767;28;20199;-79
2021/12/15 09:31:54;;;;;;;7.30;6.32;;;;;;;;;;5047162;28;20659;-83
2021/12/15 09:34:21;;;;;;;8.40;7.60;;;;;;;;;;5065524;28;20218;-81
2021/12/15 09:36:49;;;;;;;7.80;6.55;;;;;;;;;;5054818;28;20198;-80
2021/12/15 09:39:17;;;;;;;8.30;7.00;;;;;;;;;;5039611;28;20479;-79
2021/12/15 09:41:45;;;;;;;7.13;6.43;;;;;;;;;;5046526;28;20671;-78
2021/12/15 09:44:16;;;;;;;9.88;7.70;;;;;;;;;;5049280;28;20654;-78
2021/12/15 09:47:10;;;;;;;7.90;5.88;;;;;;;;;;5048430;28;20293;-78
2021/12/15 10:03:49;;;;;;;8.65;6.82;;;;;;;;;;5053542;28;20209;-78
2021/12/15 10:06:33;;;;;;;8.48;6.20;;;;;;;;;;5043951;28;20547;-78
2021/12/15 10:11:53;;;;;;;8.80;7.07;;;;;;;;;;5050902;28;20201;-79
2021/12/15 10:20:04;;;;;;;10.27;6.88;;;;;;;;;;5066086;28;20200;-78
2021/12/15 10:22:37;;;;;;;9.35;8.35;;;;;;;;;;5053903;28;20214;-78
2021/12/15 10:25:08;;;;;;;6.72;6.00;;;;;;;;;;5046905;28;20712;-78
2021/12/15 10:27:37;;;;;;;9.63;7.57;;;;;;;;;;5048727;28;20199;-78
2021/12/15 10:30:10;;;;;;;7.88;6.80;;;;;;;;;;5056841;28;20203;-78
2021/12/15 10:32:39;;;;;;;9.57;8.10;;;;;;;;;;5057769;28;20224;-79
2021/12/15 10:35:07;;;;;;;8.15;7.10;;;;;;;;;;5051593;28;20576;-79
2021/12/15 10:37:34;;;;;;;8.55;7.32;;;;;;;;;;5050399;28;20194;-78
2021/12/15 10:40:12;;;;;;;9.43;7.18;;;;;;;;;;5051541;28;20203;-78
2021/12/15 10:42:39;;;;;;;7.75;6.95;;;;;;;;;;5051238;28;20190;-79
2021/12/15 10:45:10;;;;;;;8.70;7.18;;;;;;;;;;5064846;28;20575;-79
2021/12/15 10:47:41;;;;;;;8.85;6.43;;;;;;;;;;5054988;28;20198;-78
2021/12/15 10:50:12;;;;;;;8.35;7.50;;;;;;;;;;5050319;28;20198;-78
2021/12/15 10:52:50;;;;;;;8.52;7.57;;;;;;;;;;5049682;28;20202;-81
2021/12/15 10:55:17;;;;;;;10.60;8.05;;;;;;;;;;5051181;28;20224;-81
2021/12/15 10:57:44;;;;;;;8.50;7.63;;;;;;;;;;5053277;28;20207;-81
2021/12/15 11:00:16;;;;;;;8.00;7.22;;;;;;;;;;5065027;28;20241;-78
2021/12/15 11:02:43;;;;;;;12.55;8.15;;;;;;;;;;5049841;28;20203;-81
2021/12/15 11:05:14;;;;;;;8.23;7.40;;;;;;;;;;5058715;28;20191;-79
2021/12/15 11:07:42;;;;;;;11.25;8.15;;;;;;;;;;5048381;28;20600;-79
2021/12/15 11:10:11;;;;;;;11.70;9.68;;;;;;;;;;5046038;28;20197;-79
2021/12/15 11:12:40;;;;;;;10.50;8.63;;;;;;;;;;5044737;28;20780;-79
2021/12/15 11:15:10;;;;;;;8.68;7.72;;;;;;;;;;5050899;28;20262;-79
2021/12/15 11:17:41;;;;;;;8.10;7.10;;;;;;;;;;5046548;28;20212;-79
2021/12/15 11:20:11;;;;;;;9.68;8.10;;;;;;;;;;5062224;28;20205;-79
2021/12/15 11:22:50;;;;;;;11.38;8.88;;;;;;;;;;5052798;28;20210;-79
2021/12/15 11:25:44;;;;;;;9.13;7.90;;;;;;;;;;5059155;28;20194;-80
2021/12/15 11:28:14;;;;;;;10.95;8.98;;;;;;;;;;5053779;28;20217;-79
2021/12/15 11:30:43;;;;;;;10.63;9.52;;;;;;;;;;5058423;28;20210;-79
2021/12/15 11:33:13;;;;;;;9.63;8.23;;;;;;;;;;5045751;28;20674;-79
2021/12/15 11:35:41;;;;;;;14.60;9.45;;;;;;;;;;5050713;28;20298;-80
2021/12/15 11:38:13;;;;;;;13.18;7.28;;;;;;;;;;5046883;28;20206;-79
2021/12/15 11:40:43;;;;;;;10.10;7.97;;;;;;;;;;5052343;28;20696;-79
2021/12/15 11:43:11;;;;;;;9.25;7.80;;;;;;;;;;5055222;28;20210;-79
2021/12/15 11:45:42;;;;;;;10.88;8.95;;;;;;;;;;5050853;28;20206;-79
2021/12/15 11:48:19;;;;;;;9.75;8.73;;;;;;;;;;5048771;28;20206;-80
2021/12/15 11:51:01;;;;;;;9.90;8.45;;;;;;;;;;5054207;28;20210;-81
2021/12/15 11:53:33;;;;;;;11.75;9.60;;;;;;;;;;5058009;28;20225;-77
2021/12/15 11:56:20;;;;;;;9.63;8.45;;;;;;;;;;5059344;28;20206;-79
2021/12/15 11:58:48;;;;;;;9.75;7.85;;;;;;;;;;5050376;28;20202;-78
2021/12/15 12:01:30;;;;;;;10.23;8.20;;;;;;;;;;5048948;28;20206;-79
2021/12/15 12:04:11;;;;;;;11.65;9.48;;;;;;;;;;5048747;28;20194;-78
2021/12/15 12:06:38;;;;;;;9.15;7.57;;;;;;;;;;5056719;28;20214;-79
2021/12/15 12:09:05;;;;;;;10.63;8.60;;;;;;;;;;5041261;28;20199;-79
2021/12/15 12:11:34;;;;;;;12.75;8.82;;;;;;;;;;5059306;28;20199;-80
2021/12/15 12:14:01;;;;;;;10.55;8.80;;;;;;;;;;5062782;28;20218;-79
2021/12/15 12:16:29;;;;;;;10.80;8.75;;;;;;;;;;5049318;28;20206;-79
2021/12/15 12:18:56;;;;;;;11.75;9.43;;;;;;;;;;5055671;28;20229;-80
2021/12/15 12:21:25;;;;;;;12.02;10.50;;;;;;;;;;5050902;28;20285;-80
2021/12/15 12:23:52;;;;;;;12.27;9.77;;;;;;;;;;5053840;28;20675;-78
2021/12/15 12:26:26;;;;;;;11.40;9.85;;;;;;;;;;5061134;28;20665;-79
2021/12/15 12:28:54;;;;;;;14.45;10.15;;;;;;;;;;5064175;28;20286;-78
2021/12/15 12:31:23;;;;;;;12.05;9.75;;;;;;;;;;5053643;28;20650;-79
2021/12/15 12:33:50;;;;;;;12.80;10.60;;;;;;;;;;5051403;28;20249;-79
2021/12/15 12:36:19;;;;;;;11.88;9.75;;;;;;;;;;5050778;28;20204;-79
2021/12/15 12:38:50;;;;;;;11.00;9.18;;;;;;;;;;5052002;28;20198;-79
2021/12/15 12:41:19;;;;;;;13.45;10.23;;;;;;;;;;5053905;28;20576;-80
2021/12/15 12:43:47;;;;;;;19.13;11.95;;;;;;;;;;5044665;28;20679;-78
2021/12/15 12:46:21;;;;;;;14.90;9.82;;;;;;;;;;5056968;28;20214;-79
2021/12/15 12:49:19;;;;;;;13.02;10.40;;;;;;;;;;5049526;28;20324;-78
2021/12/15 13:00:08;;;;;;;17.65;12.05;;;;;;;;;;5046001;28;20221;-79
2021/12/15 13:02:46;;;;;;;16.83;11.77;;;;;;;;;;5058131;28;20681;-79
2021/12/15 13:05:31;;;;;;;16.70;11.73;;;;;;;;;;5046102;28;20624;-79
2021/12/15 13:07:59;;;;;;;16.55;11.95;;;;;;;;;;5040728;28;20199;-78
2021/12/15 13:10:41;;;;;;;12.52;11.15;;;;;;;;;;5029890;28;20196;-78
2021/12/15 13:13:14;;;;;;;16.67;12.25;;;;;;;;;;5053960;28;20213;-79
2021/12/15 13:15:41;;;;;;;15.57;11.52;;;;;;;;;;5042024;28;20773;-79
2021/12/15 13:18:12;;;;;;;15.85;13.35;;;;;;;;;;5060249;28;20201;-79
2021/12/15 13:20:39;;;;;;;17.60;13.75;;;;;;;;;;5064699;28;20275;-79
2021/12/15 13:23:27;;;;;;;16.25;12.73;;;;;;;;;;5039615;28;20911;-79
2021/12/15 13:28:45;;;;;;;15.43;11.82;;;;;;;;;;5042269;28;20198;-79
2021/12/15 13:31:15;;;;;;;17.52;12.70;;;;;;;;;;5048702;28;20199;-79
2021/12/15 13:33:44;;;;;;;18.60;12.95;;;;;;;;;;5047132;28;20226;-79
2021/12/15 13:36:13;;;;;;;15.88;11.20;;;;;;;;;;5046063;28;20203;-78
2021/12/15 13:38:43;;;;;;;14.68;11.07;;;;;;;;;;5046418;28;20205;-78
2021/12/15 13:41:20;;;;;;;16.45;12.88;;;;;;;;;;5053300;28;20672;-78
2021/12/15 13:43:57;;;;;;;18.23;13.40;;;;;;;;;;5048675;28;20210;-78
2021/12/15 13:46:35;;;;;;;12.43;10.15;;;;;;;;;;5048315;28;20194;-78
2021/12/15 13:49:05;;;;;;;16.42;12.40;;;;;;;;;;5045093;28;20202;-79
2021/12/15 13:51:51;;;;;;;16.63;13.35;;;;;;;;;;5057729;28;20583;-78
2021/12/15 13:54:23;;;;;;;17.52;12.32;;;;;;;;;;5056680;28;20225;-78
2021/12/15 13:56:50;;;;;;;14.30;11.25;;;;;;;;;;5048217;28;20640;-78
2021/12/15 13:59:32;;;;;;;16.95;12.25;;;;;;;;;;5058515;28;20228;-78
2021/12/15 14:02:12;;;;;;;12.25;10.88;;;;;;;;;;5050951;28;20199;-78
2021/12/15 14:04:43;;;;;;;16.90;12.05;;;;;;;;;;5030382;28;20659;-78
2021/12/15 14:07:31;;;;;;;13.77;12.25;;;;;;;;;;5040822;28;20203;-78
2021/12/15 14:09:59;;;;;;;15.52;11.52;;;;;;;;;;5052836;28;20213;-78
2021/12/15 14:12:44;;;;;;;14.13;12.43;;;;;;;;;;5068365;28;20677;-78
2021/12/15 14:15:13;;;;;;;15.82;12.80;;;;;;;;;;5061494;28;20214;-78
2021/12/15 14:17:40;;;;;;;16.92;12.57;;;;;;;;;;5047535;28;20206;-78
2021/12/15 14:20:11;;;;;;;15.02;11.82;;;;;;;;;;5054488;28;20562;-78
2021/12/15 14:22:38;;;;;;;17.52;13.02;;;;;;;;;;5055101;28;20658;-78
2021/12/15 14:25:06;;;;;;;16.00;12.68;;;;;;;;;;5031833;28;20195;-78
2021/12/15 14:27:33;;;;;;;16.05;12.05;;;;;;;;;;5041847;28;20565;-78
2021/12/15 14:30:00;;;;;;;14.80;11.68;;;;;;;;;;5050762;28;20650;-79
2021/12/15 14:32:29;;;;;;;19.83;13.77;;;;;;;;;;5050772;28;20199;-79
2021/12/15 14:34:56;;;;;;;15.93;11.45;;;;;;;;;;5050328;28;20226;-78
2021/12/15 14:37:23;;;;;;;18.33;12.50;;;;;;;;;;5048661;28;20202;-79
2021/12/15 14:39:51;;;;;;;18.83;13.40;;;;;;;;;;5052799;28;20570;-78
2021/12/15 14:42:21;;;;;;;15.90;12.85;;;;;;;;;;5050108;28;20194;-78
2021/12/15 14:44:49;;;;;;;14.93;11.90;;;;;;;;;;5046624;28;20194;-78
2021/12/15 14:47:18;;;;;;;18.23;13.45;;;;;;;;;;5053957;28;20194;-77
2021/12/15 14:49:48;;;;;;;21.08;14.93;;;;;;;;;;5047001;28;21938;-78
2021/12/15 14:52:16;;;;;;;18.98;13.25;;;;;;;;;;5055550;28;20217;-78
2021/12/15 14:54:44;;;;;;;14.48;12.68;;;;;;;;;;5051656;28;20224;-78
2021/12/15 14:57:14;;;;;;;18.00;12.85;;;;;;;;;;5058809;28;20199;-78
2021/12/15 14:59:43;;;;;;;15.00;12.73;;;;;;;;;;5053494;28;20214;-78
2021/12/15 15:02:11;;;;;;;21.42;14.55;;;;;;;;;;5054786;28;20567;-78
2021/12/15 15:04:38;;;;;;;20.33;14.05;;;;;;;;;;5057969;28;20566;-78
2021/12/15 15:07:09;;;;;;;18.10;13.65;;;;;;;;;;5056351;28;20221;-78
2021/12/15 15:09:37;;;;;;;20.50;15.32;;;;;;;;;;5048963;28;20202;-78
2021/12/15 15:12:07;;;;;;;17.40;14.13;;;;;;;;;;5053437;28;20209;-79
2021/12/15 15:14:37;;;;;;;23.33;15.93;;;;;;;;;;5048599;28;20222;-78
2021/12/15 15:17:06;;;;;;;21.40;15.40;;;;;;;;;;5051488;28;20443;-78
2021/12/15 15:19:50;;;;;;;19.00;16.55;;;;;;;;;;5050234;28;20209;-79
2021/12/15 15:22:19;;;;;;;23.33;15.95;;;;;;;;;;5053580;28;20613;-78
2021/12/15 15:24:47;;;;;;;19.90;15.23;;;;;;;;;;5053320;28;20194;-78
2021/12/15 15:27:16;;;;;;;18.10;13.45;;;;;;;;;;5056076;28;20202;-78
2021/12/15 15:29:44;;;;;;;22.02;16.42;;;;;;;;;;5059543;28;20191;-79
2021/12/15 15:32:14;;;;;;;19.58;15.38;;;;;;;;;;5067591;28;20205;-79
2021/12/15 15:34:42;;;;;;;23.30;14.60;;;;;;;;;;5078117;28;20268;-79
2021/12/15 15:37:11;;;;;;;18.63;15.45;;;;;;;;;;5071938;28;20224;-79
2021/12/15 15:39:40;;;;;;;19.20;13.63;;;;;;;;;;5065364;28;20434;-79
2021/12/15 15:42:07;;;;;;;19.77;16.65;;;;;;;;;;5056324;28;20195;-80
2021/12/15 15:44:35;;;;;;;19.75;14.65;;;;;;;;;;5047215;28;20210;-80
2021/12/15 15:47:03;;;;;;;19.00;15.63;;;;;;;;;;5047229;28;20198;-74